Time;durP1;ratioP1;P1;durP2;ratioP2;P2;SDS_P1;SDS_P2;PMS_P1;PMS_P2;Temp;Humidity;BMP_temperature;BMP_pressure;BME280_temperature;BME280_humidity;BME280_pressure;Samples;Min_cycle;Max_cycle;Signal;HPM_P1;HPM_P2
2022/10/14 00:00:49;;;;;;;;;;;;;;;16.52;78.61;100427.81;5013142;28;1963;-61
2022/10/14 00:03:14;;;;;;;;;;;;;;;16.52;79.42;100428.63;5017520;28;1782;-60
2022/10/14 00:05:40;;;;;;;;;;;;;;;16.52;78.81;100423.13;5027100;28;2097;-62
2022/10/14 00:08:05;;;;;;;;;;;;;;;16.52;78.97;100420.34;5020839;28;1737;-62
2022/10/14 00:10:30;;;;;;;;;;;;;;;16.52;79.20;100423.13;5023266;28;1632;-62
2022/10/14 00:12:55;;;;;;;;;;;;;;;16.52;79.63;100423.13;5025472;28;1762;-61
2022/10/14 00:15:20;;;;;;;;;;;;;;;16.53;79.13;100421.16;5016172;28;1816;-62
2022/10/14 00:17:46;;;;;;;;;;;;;;;16.55;79.47;100419.72;5011887;28;1828;-61
2022/10/14 00:20:11;;;;;;;;;;;;;;;16.54;79.28;100418.09;5013670;28;1902;-61
2022/10/14 00:22:36;;;;;;;;;;;;;;;16.54;79.74;100422.78;5019785;28;1810;-62
2022/10/14 00:25:01;;;;;;;;;;;;;;;16.54;79.79;100422.78;5020186;28;2006;-61
2022/10/14 00:27:26;;;;;;;;;;;;;;;16.53;78.98;100418.41;5023563;28;2013;-62
2022/10/14 00:29:51;;;;;;;;;;;;;;;16.52;79.28;100422.28;5016297;28;1831;-61
2022/10/14 00:32:17;;;;;;;;;;;;;;;16.53;79.22;100426.69;5012682;28;1787;-61
2022/10/14 00:34:42;;;;;;;;;;;;;;;16.52;79.19;100419.53;5020129;28;1933;-61
2022/10/14 00:37:07;;;;;;;;;;;;;;;16.52;79.62;100422.28;5024729;28;1774;-62
2022/10/14 00:39:32;;;;;;;;;;;;;;;16.52;79.68;100414.00;5019640;28;1695;-61
2022/10/14 00:41:57;;;;;;;;;;;;;;;16.52;79.56;100423.13;5016887;28;1902;-59
2022/10/14 00:44:22;;;;;;;;;;;;;;;16.52;79.80;100420.34;5013723;28;2171;-61
2022/10/14 00:46:49;;;;;;;;;;;;;;;16.52;79.76;100419.53;5013267;28;1934;-60
2022/10/14 00:49:35;;;;;;;;;;;;;;;16.52;79.60;100417.59;5019959;28;1768;-60
2022/10/14 00:52:07;;;;;;;;;;;;;;;16.52;79.36;100416.78;5012718;28;1714;-60
2022/10/14 00:54:34;;;;;;;;;;;;;;;16.52;79.74;100417.59;5014295;28;1919;-60
2022/10/14 00:56:59;;;;;;;;;;;;;;;16.50;79.44;100410.78;5021945;28;1688;-62
2022/10/14 00:59:24;;;;;;;;;;;;;;;16.51;79.39;100409.63;5017018;28;1774;-61
2022/10/14 01:01:49;;;;;;;;;;;;;;;16.51;79.57;100415.13;5013925;28;1980;-61
2022/10/14 01:04:15;;;;;;;;;;;;;;;16.50;79.34;100414.31;5017488;28;1933;-61
2022/10/14 01:06:46;;;;;;;;;;;;;;;16.51;79.56;100421.47;5021845;28;1827;-61
2022/10/14 01:09:23;;;;;;;;;;;;;;;16.50;79.53;100419.84;5017672;28;2691;-61
2022/10/14 01:12:00;;;;;;;;;;;;;;;16.51;79.57;100418.72;5018134;28;1750;-62
2022/10/14 01:14:28;;;;;;;;;;;;;;;16.52;79.67;100408.47;5010780;28;2179;-59
2022/10/14 01:16:56;;;;;;;;;;;;;;;16.52;79.88;100412.06;5021531;28;1558;-61
2022/10/14 01:19:27;;;;;;;;;;;;;;;16.52;79.42;100411.25;5020399;28;1723;-62
2022/10/14 01:22:00;;;;;;;;;;;;;;;16.50;79.95;100414.31;5019024;28;1893;-60
2022/10/14 01:24:34;;;;;;;;;;;;;;;16.51;79.94;100413.19;5009809;28;2042;-58
2022/10/14 01:27:11;;;;;;;;;;;;;;;16.51;80.34;100418.72;5013452;28;1871;-62
2022/10/14 01:29:39;;;;;;;;;;;;;;;16.50;79.98;100413.53;5005087;28;1808;-62
2022/10/14 01:32:13;;;;;;;;;;;;;;;16.49;79.93;100415.50;5023720;28;1711;-61
2022/10/14 01:34:41;;;;;;;;;;;;;;;16.49;80.31;100411.91;5022107;28;1774;-62
2022/10/14 01:37:10;;;;;;;;;;;;;;;16.50;80.22;100405.25;5013501;28;1799;-61
2022/10/14 01:39:40;;;;;;;;;;;;;;;16.50;79.77;100408.00;5011707;28;1908;-61
2022/10/14 01:42:08;;;;;;;;;;;;;;;16.50;79.79;100396.97;5020526;28;1894;-60
2022/10/14 01:44:37;;;;;;;;;;;;;;;16.50;80.13;100408.00;5021649;28;1609;-62
2022/10/14 01:47:04;;;;;;;;;;;;;;;16.51;80.03;100395.78;5020189;28;1814;-61
2022/10/14 01:49:38;;;;;;;;;;;;;;;16.52;80.43;100394.66;5022143;28;1623;-61
2022/10/14 01:52:26;;;;;;;;;;;;;;;16.50;80.31;100391.44;5018411;28;1888;-62
2022/10/14 01:54:52;;;;;;;;;;;;;;;16.50;79.90;100391.44;5003295;28;1724;-60
2022/10/14 01:57:20;;;;;;;;;;;;;;;16.50;80.15;100383.16;5019604;28;1663;-62
2022/10/14 01:59:46;;;;;;;;;;;;;;;16.50;80.10;100394.97;5022957;28;1708;-62
2022/10/14 02:02:12;;;;;;;;;;;;;;;16.50;80.66;100380.38;5021285;28;1866;-60
2022/10/14 02:04:37;;;;;;;;;;;;;;;16.50;80.59;100383.16;5018560;28;1791;-61
2022/10/14 02:07:21;;;;;;;;;;;;;;;16.49;80.68;100379.56;5018334;28;1747;-61
2022/10/14 02:09:50;;;;;;;;;;;;;;;16.49;80.53;100381.50;5018977;28;1984;-58
2022/10/14 02:12:19;;;;;;;;;;;;;;;16.49;80.78;100385.09;5012405;28;1874;-61
2022/10/14 02:14:47;;;;;;;;;;;;;;;16.49;80.11;100384.28;5018901;28;1780;-60
2022/10/14 02:17:32;;;;;;;;;;;;;;;16.49;80.36;100379.56;5027389;28;1444;-61
2022/10/14 02:20:06;;;;;;;;;;;;;;;16.49;80.04;100378.75;5019549;28;1967;-62
2022/10/14 02:22:36;;;;;;;;;;;;;;;16.48;80.76;100377.94;5022892;28;1734;-63
2022/10/14 02:25:27;;;;;;;;;;;;;;;16.49;80.63;100379.56;5017736;28;1629;-62
2022/10/14 02:27:53;;;;;;;;;;;;;;;16.47;80.51;100376.31;5006236;28;2037;-61
2022/10/14 02:30:18;;;;;;;;;;;;;;;16.48;80.23;100377.94;5012273;28;1746;-60
2022/10/14 02:32:45;;;;;;;;;;;;;;;16.47;80.77;100372.72;5021436;28;1791;-61
2022/10/14 02:35:11;;;;;;;;;;;;;;;16.47;80.72;100367.19;5016412;28;1732;-61
2022/10/14 02:37:38;;;;;;;;;;;;;;;16.46;80.94;100369.16;5023002;28;1840;-61
2022/10/14 02:40:23;;;;;;;;;;;;;;;16.47;80.67;100365.25;5020393;28;1902;-62
2022/10/14 02:42:48;;;;;;;;;;;;;;;16.47;80.78;100369.97;5001843;28;1818;-61
2022/10/14 02:45:14;;;;;;;;;;;;;;;16.46;80.43;100358.09;5015351;28;2013;-61
2022/10/14 02:47:39;;;;;;;;;;;;;;;16.46;80.58;100349.81;5021575;28;1716;-61
2022/10/14 02:50:05;;;;;;;;;;;;;;;16.46;80.32;100351.75;5023188;28;1639;-61
2022/10/14 02:52:30;;;;;;;;;;;;;;;16.46;80.63;100358.09;5029573;28;1685;-62
2022/10/14 02:54:55;;;;;;;;;;;;;;;16.46;80.60;100346.22;5013442;28;1905;-61
2022/10/14 02:57:20;;;;;;;;;;;;;;;16.45;80.47;100341.84;5012997;28;2003;-61
2022/10/14 02:59:46;;;;;;;;;;;;;;;16.45;80.41;100339.06;5013645;28;1711;-61
2022/10/14 03:02:11;;;;;;;;;;;;;;;16.45;81.06;100333.56;5028544;28;1926;-61
2022/10/14 03:04:36;;;;;;;;;;;;;;;16.45;81.08;100337.13;5018105;28;1823;-62
2022/10/14 03:07:02;;;;;;;;;;;;;;;16.45;81.06;100336.31;5023614;28;1835;-61
2022/10/14 03:09:27;;;;;;;;;;;;;;;16.44;80.50;100337.44;5020226;28;1821;-60
2022/10/14 03:11:52;;;;;;;;;;;;;;;16.43;80.82;100335.81;5010856;28;2037;-62
2022/10/14 03:14:17;;;;;;;;;;;;;;;16.43;81.05;100344.09;5006991;28;1905;-62
2022/10/14 03:16:43;;;;;;;;;;;;;;;16.44;80.93;100345.75;5022657;28;1694;-62
2022/10/14 03:19:08;;;;;;;;;;;;;;;16.42;80.73;100337.75;5026545;28;1878;-61
2022/10/14 03:21:33;;;;;;;;;;;;;;;16.43;80.27;100330.28;5022556;28;1894;-62
2022/10/14 03:24:00;;;;;;;;;;;;;;;16.43;81.16;100333.88;5012580;28;2295;-61
2022/10/14 03:26:25;;;;;;;;;;;;;;;16.42;80.80;100323.13;5015200;28;1858;-60
2022/10/14 03:28:51;;;;;;;;;;;;;;;16.43;81.33;100324.78;5023887;28;2094;-62
2022/10/14 03:31:16;;;;;;;;;;;;;;;16.42;81.34;100334.19;5021187;28;1863;-61
2022/10/14 03:33:41;;;;;;;;;;;;;;;16.43;80.70;100333.06;5023096;28;1772;-62
2022/10/14 03:36:06;;;;;;;;;;;;;;;16.43;80.84;100325.59;5022472;28;1844;-61
2022/10/14 03:38:31;;;;;;;;;;;;;;;16.42;81.08;100325.91;5013368;28;2137;-62
2022/10/14 03:40:56;;;;;;;;;;;;;;;16.42;81.41;100329.47;5025044;28;1963;-61
2022/10/14 03:43:21;;;;;;;;;;;;;;;16.43;80.87;100319.25;5015741;28;1912;-61
2022/10/14 03:45:47;;;;;;;;;;;;;;;16.43;81.14;100325.59;5025437;28;1828;-62
2022/10/14 03:48:12;;;;;;;;;;;;;;;16.44;81.35;100323.63;5027520;28;1680;-62
2022/10/14 03:50:37;;;;;;;;;;;;;;;16.43;81.20;100330.28;5020664;28;1780;-61
2022/10/14 03:53:02;;;;;;;;;;;;;;;16.44;81.22;100331.94;5015096;28;1613;-60
2022/10/14 03:55:28;;;;;;;;;;;;;;;16.42;81.08;100329.47;5024857;28;1711;-62
2022/10/14 03:57:53;;;;;;;;;;;;;;;16.43;81.50;100335.81;5020229;28;1933;-62
2022/10/14 04:00:19;;;;;;;;;;;;;;;16.42;81.80;100329.47;5020716;28;1882;-58
2022/10/14 04:02:44;;;;;;;;;;;;;;;16.43;81.38;100331.09;5016275;28;2565;-60
2022/10/14 04:05:09;;;;;;;;;;;;;;;16.44;81.26;100329.97;5021381;28;1901;-62
2022/10/14 04:07:34;;;;;;;;;;;;;;;16.43;81.15;100331.09;5013924;28;1695;-62
2022/10/14 04:09:59;;;;;;;;;;;;;;;16.42;81.98;100326.72;5022169;28;1620;-61
2022/10/14 04:12:25;;;;;;;;;;;;;;;16.42;81.50;100317.63;5020782;28;1952;-60
2022/10/14 04:14:50;;;;;;;;;;;;;;;16.41;81.83;100325.13;5021180;28;1821;-60
2022/10/14 04:17:15;;;;;;;;;;;;;;;16.42;81.79;100325.91;5023330;28;1742;-61
2022/10/14 04:19:40;;;;;;;;;;;;;;;16.42;81.87;100320.38;5016529;28;1818;-59
2022/10/14 04:22:05;;;;;;;;;;;;;;;16.41;81.69;100327.06;5011577;28;1898;-60
2022/10/14 04:24:30;;;;;;;;;;;;;;;16.44;81.91;100323.63;5025633;28;1627;-61
2022/10/14 04:26:56;;;;;;;;;;;;;;;16.42;81.88;100315.66;5018749;28;1797;-61
2022/10/14 04:29:21;;;;;;;;;;;;;;;16.42;81.92;100323.94;5013813;28;1741;-60
2022/10/14 04:31:46;;;;;;;;;;;;;;;16.42;81.56;100323.94;5013280;28;2059;-61
2022/10/14 04:34:11;;;;;;;;;;;;;;;16.41;81.30;100319.59;5011979;28;1874;-61
2022/10/14 04:36:38;;;;;;;;;;;;;;;16.41;81.83;100316.84;5024527;28;1694;-61
2022/10/14 04:39:03;;;;;;;;;;;;;;;16.41;81.46;100316.84;5024855;28;1657;-61
2022/10/14 04:41:28;;;;;;;;;;;;;;;16.40;82.01;100320.72;5015740;28;1905;-61
2022/10/14 04:43:53;;;;;;;;;;;;;;;16.43;81.89;100313.72;5019432;28;1808;-61
2022/10/14 04:46:18;;;;;;;;;;;;;;;16.45;81.61;100312.25;5016986;28;1900;-61
2022/10/14 04:48:45;;;;;;;;;;;;;;;16.46;81.70;100313.09;5012715;28;1973;-61
2022/10/14 04:51:11;;;;;;;;;;;;;;;16.45;81.92;100311.44;5017571;28;1932;-61
2022/10/14 04:53:36;;;;;;;;;;;;;;;16.45;81.68;100306.75;5022929;28;1885;-61
2022/10/14 04:56:01;;;;;;;;;;;;;;;16.44;81.53;100304.28;5019986;28;1819;-58
2022/10/14 04:58:26;;;;;;;;;;;;;;;16.44;82.34;100307.06;5025070;28;1875;-62
2022/10/14 05:00:52;;;;;;;;;;;;;;;16.42;82.30;100307.38;5021522;28;1906;-61
2022/10/14 05:03:17;;;;;;;;;;;;;;;16.42;82.41;100299.09;5012186;28;1741;-62
2022/10/14 05:05:43;;;;;;;;;;;;;;;16.42;82.25;100298.28;5019746;28;1789;-59
2022/10/14 05:08:08;;;;;;;;;;;;;;;16.40;81.56;100329.00;5019596;28;1916;-62
2022/10/14 05:10:33;;;;;;;;;;;;;;;16.41;82.37;100302.19;5026432;28;1708;-62
2022/10/14 05:12:58;;;;;;;;;;;;;;;16.39;82.04;100297.00;5019441;28;1715;-61
2022/10/14 05:15:24;;;;;;;;;;;;;;;16.39;82.19;100297.00;5016789;28;2005;-62
2022/10/14 05:17:49;;;;;;;;;;;;;;;16.40;82.08;100289.53;5011219;28;1801;-62
2022/10/14 05:20:14;;;;;;;;;;;;;;;16.39;82.36;100296.19;5019852;28;1902;-62
2022/10/14 05:22:39;;;;;;;;;;;;;;;16.40;82.35;100292.28;5020177;28;1797;-61
2022/10/14 05:25:05;;;;;;;;;;;;;;;16.39;82.01;100297.00;5017214;28;1866;-60
2022/10/14 05:27:30;;;;;;;;;;;;;;;16.40;82.12;100297.81;5025214;28;1685;-61
2022/10/14 05:29:55;;;;;;;;;;;;;;;16.39;82.33;100297.00;5020887;28;2303;-61
2022/10/14 05:32:20;;;;;;;;;;;;;;;16.39;81.86;100298.94;5012375;28;1773;-62
2022/10/14 05:34:45;;;;;;;;;;;;;;;16.38;82.22;100294.56;5017618;28;2129;-61
2022/10/14 05:37:10;;;;;;;;;;;;;;;16.38;82.53;100300.06;5017034;28;1755;-62
2022/10/14 05:39:36;;;;;;;;;;;;;;;16.39;82.09;100290.66;5021171;28;1629;-61
2022/10/14 05:42:01;;;;;;;;;;;;;;;16.38;82.10;100289.03;5018042;28;1935;-61
2022/10/14 05:44:26;;;;;;;;;;;;;;;16.38;81.88;100294.56;5013061;28;1979;-62
2022/10/14 05:46:51;;;;;;;;;;;;;;;16.38;82.02;100297.31;5012995;28;1992;-61
2022/10/14 05:49:17;;;;;;;;;;;;;;;16.39;81.92;100290.66;5018657;28;1793;-61
2022/10/14 05:51:42;;;;;;;;;;;;;;;16.38;82.36;100294.56;5014561;28;1928;-61
2022/10/14 05:54:07;;;;;;;;;;;;;;;16.37;82.29;100290.97;5025172;28;1840;-62
2022/10/14 05:56:32;;;;;;;;;;;;;;;16.37;82.46;100292.91;5019877;28;1608;-62
2022/10/14 05:58:57;;;;;;;;;;;;;;;16.37;82.62;100290.97;5012270;28;1780;-59
2022/10/14 06:01:22;;;;;;;;;;;;;;;16.38;82.43;100286.25;5019885;28;1894;-62
2022/10/14 06:03:51;;;;;;;;;;;;;;;16.37;82.44;100284.63;5020654;28;2050;-60
2022/10/14 06:06:16;;;;;;;;;;;;;;;16.37;82.10;100279.13;5013190;28;2147;-61
2022/10/14 06:08:42;;;;;;;;;;;;;;;16.37;82.10;100276.34;5011417;28;1833;-62
2022/10/14 06:11:07;;;;;;;;;;;;;;;16.36;82.47;100281.06;5022374;28;2124;-62
2022/10/14 06:13:33;;;;;;;;;;;;;;;16.38;82.25;100297.31;5022723;28;1769;-61
2022/10/14 06:16:02;;;;;;;;;;;;;;;16.38;82.61;100297.31;5017512;28;2034;-61
2022/10/14 06:18:27;;;;;;;;;;;;;;;16.38;82.37;100300.06;5023577;28;1702;-61
2022/10/14 06:20:53;;;;;;;;;;;;;;;16.36;82.62;100292.09;5004517;28;2081;-61
2022/10/14 06:23:18;;;;;;;;;;;;;;;16.37;82.38;100292.91;5009764;28;1812;-60
2022/10/14 06:25:43;;;;;;;;;;;;;;;16.37;82.60;100295.69;5028561;28;1809;-61
2022/10/14 06:28:08;;;;;;;;;;;;;;;16.37;82.51;100292.91;5025351;28;1760;-61
2022/10/14 06:30:33;;;;;;;;;;;;;;;16.36;82.72;100294.06;5023583;28;1844;-62
2022/10/14 06:32:59;;;;;;;;;;;;;;;16.36;82.47;100291.28;5025924;28;1840;-62
2022/10/14 06:35:24;;;;;;;;;;;;;;;16.35;82.54;100290.47;5006029;28;2326;-61
2022/10/14 06:37:49;;;;;;;;;;;;;;;16.36;82.59;100296.81;5011027;28;1795;-61
2022/10/14 06:40:14;;;;;;;;;;;;;;;16.36;82.71;100296.81;5023648;28;1975;-61
2022/10/14 06:42:39;;;;;;;;;;;;;;;16.36;82.76;100303.16;5023743;28;1618;-61
2022/10/14 06:45:05;;;;;;;;;;;;;;;16.36;82.57;100299.56;5022628;28;2065;-61
2022/10/14 06:47:30;;;;;;;;;;;;;;;16.35;82.62;100303.47;5024283;28;1796;-61
2022/10/14 06:49:56;;;;;;;;;;;;;;;16.35;82.51;100297.94;5012599;28;1848;-62
2022/10/14 06:52:21;;;;;;;;;;;;;;;16.35;82.44;100293.25;5022625;28;1710;-61
2022/10/14 06:54:46;;;;;;;;;;;;;;;16.35;82.90;100297.94;5023998;28;1725;-61
2022/10/14 06:57:11;;;;;;;;;;;;;;;16.35;82.83;100295.19;5025919;28;1619;-61
2022/10/14 06:59:37;;;;;;;;;;;;;;;16.36;82.51;100294.06;5024046;28;1705;-62
2022/10/14 07:02:03;;;;;;;;;;;;;;;16.34;82.93;100294.38;5018473;28;1943;-61
2022/10/14 07:04:28;;;;;;;;;;;;;;;16.37;82.68;100301.22;5012779;28;1886;-60
2022/10/14 07:06:56;;;;;;;;;;;;;;;16.43;82.58;100292.44;5011724;28;2088;-61
2022/10/14 07:09:21;;;;;;;;;;;;;;;16.45;82.30;100294.88;5019915;28;1587;-60
2022/10/14 07:11:46;;;;;;;;;;;;;;;16.46;82.61;100283.50;5030913;28;1366;-62
2022/10/14 07:14:11;;;;;;;;;;;;;;;16.46;82.97;100283.50;5014861;28;1055;-60
2022/10/14 07:16:36;;;;;;;;;;;;;;;16.47;83.13;100281.56;5021727;28;2294;-62
2022/10/14 07:19:02;;;;;;;;;;;;;;;16.46;82.55;100282.69;5021698;28;1647;-62
2022/10/14 07:21:27;;;;;;;;;;;;;;;16.47;82.79;100292.59;5004965;28;2218;-61
2022/10/14 07:23:54;;;;;;;;;;;;;;;16.47;83.14;100295.38;5018339;28;1839;-62
2022/10/14 07:26:19;;;;;;;;;;;;;;;16.46;82.81;100293.75;5011563;28;1800;-62
2022/10/14 07:28:44;;;;;;;;;;;;;;;16.46;83.42;100291.78;4963769;28;1019456;-62
2022/10/14 07:31:10;;;;;;;;;;;;;;;16.47;83.01;100287.91;5013352;28;2399;-62
2022/10/14 07:33:36;;;;;;;;;;;;;;;16.48;83.11;100286.75;5024423;28;2350;-61
2022/10/14 07:36:05;;;;;;;;;;;;;;;16.49;83.25;100290.34;5029930;28;1620;-62
2022/10/14 07:38:31;;;;;;;;;;;;;;;16.53;82.77;100292.13;5018603;28;1942;-62
2022/10/14 07:40:57;;;;;;;;;;;;;;;16.71;81.92;100298.47;5014326;28;1918;-61
2022/10/14 07:43:22;;;;;;;;;;;;;;;16.57;82.60;100297.81;5029632;28;1658;-63
2022/10/14 07:45:49;;;;;;;;;;;;;;;16.40;82.55;100301.38;5026708;28;1579;-60
2022/10/14 07:48:14;;;;;;;;;;;;;;;16.31;83.22;100300.56;5024807;28;1716;-63
2022/10/14 07:50:40;;;;;;;;;;;;;;;16.26;83.27;100303.47;5023124;28;1675;-62
2022/10/14 07:53:05;;;;;;;;;;;;;;;16.22;83.50;100305.25;5017348;28;1862;-62
2022/10/14 07:55:30;;;;;;;;;;;;;;;16.22;82.97;100302.50;5019370;28;1911;-62
2022/10/14 07:57:55;;;;;;;;;;;;;;;16.46;82.78;100302.03;5023034;28;1790;-61
2022/10/14 08:00:20;;;;;;;;;;;;;;;16.71;82.12;100306.78;5024871;28;1961;-61
2022/10/14 08:02:46;;;;;;;;;;;;;;;16.36;81.07;100300.41;5021543;28;1790;-62
2022/10/14 08:05:11;;;;;;;;;;;;;;;16.40;81.36;100300.56;5026044;28;1701;-61
2022/10/14 08:07:36;;;;;;;;;;;;;;;16.60;80.96;100306.25;5008196;28;2102;-62
2022/10/14 08:10:01;;;;;;;;;;;;;;;16.80;80.67;100298.47;5018703;28;2159;-62
2022/10/14 08:12:26;;;;;;;;;;;;;;;16.97;81.06;100302.03;5018043;28;1628;-60
2022/10/14 08:14:53;;;;;;;;;;;;;;;17.11;80.80;100296.28;5014825;28;988;-62
2022/10/14 08:17:19;;;;;;;;;;;;;;;17.22;80.43;100294.00;5011832;28;2338;-62
2022/10/14 08:19:44;;;;;;;;;;;;;;;17.33;79.06;100290.56;5010816;28;1813;-62
2022/10/14 08:22:09;;;;;;;;;;;;;;;17.42;79.32;100296.06;5021700;28;1894;-62
2022/10/14 08:24:34;;;;;;;;;;;;;;;17.45;79.83;100287.06;5021975;28;1633;-62
2022/10/14 08:26:59;;;;;;;;;;;;;;;17.47;78.82;100276.50;5014481;28;984;-62
2022/10/14 08:29:26;;;;;;;;;;;;;;;17.51;79.51;100279.44;5014884;28;1808;-62
2022/10/14 08:31:52;;;;;;;;;;;;;;;17.53;79.60;100261.31;5014877;28;1104;-62
2022/10/14 08:34:23;;;;;;;;;;;;;;;17.61;78.84;100267.97;5019673;28;1879;-62
2022/10/14 08:36:48;;;;;;;;;;;;;;;17.75;79.70;100260.28;5004115;28;1881;-62
2022/10/14 08:39:15;;;;;;;;;;;;;;;17.63;77.31;100257.41;4996976;28;2066;-60
2022/10/14 08:41:59;;;;;;;;;;;;;;;17.69;77.06;100258.84;5014031;28;2082;-56
2022/10/14 08:44:27;;;;;;;;;;;;;;;17.76;77.56;100256.38;5015351;28;1568;-57
2022/10/14 08:46:57;;;;;;;;;;;;;;;17.79;77.56;100250.16;5018746;28;2019;-57
2022/10/14 08:49:25;;;;;;;;;;;;;;;17.80;77.57;100257.31;5016756;28;1997;-57
2022/10/14 08:51:56;;;;;;;;;;;;;;;17.80;78.31;100246.25;5011101;28;2037;-59
2022/10/14 08:54:26;;;;;;;;;;;;;;;17.82;77.78;100248.69;5018332;28;1654;-58
2022/10/14 08:56:52;;;;;;;;;;;;;;;17.81;78.11;100247.06;5010145;28;1888;-59
2022/10/14 08:59:18;;;;;;;;;;;;;;;17.80;78.19;100254.53;5013895;28;1959;-58
2022/10/14 09:01:50;;;;;;;;;;;;;;;17.81;77.25;100249.81;5026306;28;1973;-58
2022/10/14 09:04:15;;;;;;;;;;;;;;;17.80;78.27;100246.25;5017154;28;1989;-57
2022/10/14 09:06:43;;;;;;;;;;;;;;;17.80;77.58;100248.19;5022859;28;1718;-58
2022/10/14 09:09:11;;;;;;;;;;;;;;;17.78;79.07;100249.34;5022038;28;1907;-58
2022/10/14 09:11:39;;;;;;;;;;;;;;;17.77;78.99;100242.19;5018370;28;1701;-59
2022/10/14 09:14:05;;;;;;;;;;;;;;;17.76;78.73;100245.31;5012637;28;1989;-60
2022/10/14 09:16:34;;;;;;;;;;;;;;;17.77;78.19;100252.47;5019688;28;1749;-59
2022/10/14 09:19:01;;;;;;;;;;;;;;;17.76;78.77;100248.88;5008343;28;2087;-58
2022/10/14 09:21:30;;;;;;;;;;;;;;;17.78;79.61;100248.53;5010434;28;2206;-58
2022/10/14 09:24:01;;;;;;;;;;;;;;;17.80;79.58;100248.19;5005673;28;1715;-57
2022/10/14 09:26:30;;;;;;;;;;;;;;;17.76;79.71;100256.38;5008626;28;2038;-59
2022/10/14 09:28:55;;;;;;;;;;;;;;;17.73;78.19;100255.06;5012699;28;1590;-58
2022/10/14 09:31:20;;;;;;;;;;;;;;;17.72;78.38;100250.69;5019530;28;1890;-58
2022/10/14 09:33:45;;;;;;;;;;;;;;;17.70;78.92;100252.97;5027373;28;1876;-57
2022/10/14 09:36:15;;;;;;;;;;;;;;;17.70;78.16;100252.97;5014894;28;1815;-57
2022/10/14 09:38:41;;;;;;;;;;;;;;;17.68;77.90;100249.75;5021985;28;2047;-58
2022/10/14 09:41:09;;;;;;;;;;;;;;;17.69;78.90;100254.09;5022050;28;1898;-58
2022/10/14 09:43:34;;;;;;;;;;;;;;;17.68;78.07;100244.22;5019936;28;2043;-61
2022/10/14 09:46:06;;;;;;;;;;;;;;;17.67;77.67;100248.13;5008128;28;1767;-58
2022/10/14 09:48:48;;;;;;;;;;;;;;;17.61;77.58;100241.09;5021904;28;1890;-58
2022/10/14 09:51:18;;;;;;;;;;;;;;;17.52;77.45;100240.34;5023556;28;2225;-58
2022/10/14 09:53:46;;;;;;;;;;;;;;;17.43;76.63;100239.59;5015855;28;1921;-59
2022/10/14 09:56:12;;;;;;;;;;;;;;;17.44;77.41;100232.09;5017350;28;1853;-60
2022/10/14 09:58:37;;;;;;;;;;;;;;;17.44;77.66;100226.56;5020682;28;1638;-57
2022/10/14 10:01:02;;;;;;;;;;;;;;;17.44;78.24;100226.56;5024413;28;2189;-59
2022/10/14 10:03:31;;;;;;;;;;;;;;;17.42;77.54;100215.81;5033598;28;1707;-58
2022/10/14 10:06:04;;;;;;;;;;;;;;;17.42;78.25;100212.25;5036780;28;802;-57
2022/10/14 10:08:29;;;;;;;;;;;;;;;17.40;77.63;100207.03;5036770;28;1952;-58
2022/10/14 10:10:59;;;;;;;;;;;;;;;17.40;77.89;100210.63;5036947;28;826;-58
2022/10/14 10:13:32;;;;;;;;;;;;;;;17.41;77.41;100211.44;5024119;28;2060;-58
2022/10/14 10:15:58;;;;;;;;;;;;;;;17.40;77.63;100201.50;5022382;28;1231;-58
2022/10/14 10:18:23;;;;;;;;;;;;;;;17.39;78.69;100199.88;5036691;28;1212;-57
2022/10/14 10:21:05;;;;;;;;;;;;;;;17.39;78.55;100195.16;5035721;28;1951;-58
2022/10/14 10:23:31;;;;;;;;;;;;;;;17.38;77.54;100198.25;5036425;28;1504;-58
2022/10/14 10:26:12;;;;;;;;;;;;;;;17.38;77.53;100187.19;5036205;28;928;-58
2022/10/14 10:28:44;;;;;;;;;;;;;;;17.38;78.45;100182.47;5031458;28;2156;-57
2022/10/14 10:31:28;;;;;;;;;;;;;;;17.39;78.20;100181.31;5027772;28;1797;-57
2022/10/14 10:34:03;;;;;;;;;;;;;;;17.39;77.61;100186.03;5020758;28;1651;-58
2022/10/14 10:36:36;;;;;;;;;;;;;;;17.39;78.57;100180.50;5036187;28;956;-56
2022/10/14 10:39:37;;;;;;;;;;;;;;;17.38;77.20;100167.81;5036490;28;1221;-57
2022/10/14 10:42:12;;;;;;;;;;;;;;;17.36;77.86;100170.09;4977815;28;1899;-58
2022/10/14 10:44:57;;;;;;;;;;;;;;;17.24;76.89;100164.47;5003214;28;1962;-57
2022/10/14 10:47:23;;;;;;;;;;;;;;;17.07;76.66;100159.84;5012413;28;1490;-59
2022/10/14 10:49:57;;;;;;;;;;;;;;;17.11;76.85;100157.22;5021986;28;1894;-56
2022/10/14 10:52:43;;;;;;;;;;;;;;;17.22;76.73;100162.03;5013687;28;1842;-58
2022/10/14 10:55:16;;;;;;;;;;;;;;;17.33;77.22;100152.22;5013125;28;1936;-57
2022/10/14 10:57:44;;;;;;;;;;;;;;;17.40;76.18;100149.75;5024745;28;1909;-56
2022/10/14 11:00:12;;;;;;;;;;;;;;;17.45;76.82;100148.72;5010630;28;1853;-57
2022/10/14 11:02:56;;;;;;;;;;;;;;;17.48;77.57;100142.53;5012203;28;1961;-59
2022/10/14 11:05:36;;;;;;;;;;;;;;;17.50;76.74;100134.72;5013744;28;1811;-59
2022/10/14 11:13:50;;;;;;;;;;;;;;;17.45;77.17;100118.28;5024513;28;1567;-60
2022/10/14 11:16:27;;;;;;;;;;;;;;;17.44;77.65;100110.34;5013073;28;1939;-57
2022/10/14 11:19:11;;;;;;;;;;;;;;;17.44;76.72;100104.81;5007927;28;2233;-58
2022/10/14 11:21:48;;;;;;;;;;;;;;;17.31;76.64;100110.25;5022248;28;1957;-58
2022/10/14 11:24:27;;;;;;;;;;;;;;;17.11;76.50;100107.44;5019401;28;1729;-60
2022/10/14 11:27:04;;;;;;;;;;;;;;;17.00;76.02;100110.59;5017090;28;1935;-58
2022/10/14 11:29:48;;;;;;;;;;;;;;;17.00;76.14;100107.00;5032457;28;1627;-59
2022/10/14 11:32:28;;;;;;;;;;;;;;;17.07;77.06;100099.00;5018520;28;2143;-58
2022/10/14 11:35:12;;;;;;;;;;;;;;;17.07;76.96;100095.44;5027889;28;2018;-56
2022/10/14 11:37:56;;;;;;;;;;;;;;;16.98;76.48;100096.28;5028798;28;1904;-58
2022/10/14 11:40:41;;;;;;;;;;;;;;;16.99;76.73;100094.34;5010667;28;1887;-56
2022/10/14 11:43:25;;;;;;;;;;;;;;;17.02;76.67;100082.59;5013816;28;1558;-55
2022/10/14 11:45:50;;;;;;;;;;;;;;;17.08;77.28;100091.53;5013075;28;2176;-63
2022/10/14 11:48:22;;;;;;;;;;;;;;;17.11;76.80;100088.88;5021931;28;1906;-55
2022/10/14 11:50:50;;;;;;;;;;;;;;;17.14;76.70;100081.88;5012558;28;1797;-56
2022/10/14 11:53:18;;;;;;;;;;;;;;;17.00;74.59;100080.19;5013147;28;1803;-56
2022/10/14 11:55:47;;;;;;;;;;;;;;;17.13;75.98;100077.50;5025203;28;1528;-55
2022/10/14 11:58:14;;;;;;;;;;;;;;;17.28;75.84;100068.59;5018890;28;1867;-60
2022/10/14 12:00:54;;;;;;;;;;;;;;;17.32;75.44;100073.16;5012371;28;1903;-54
2022/10/14 12:03:27;;;;;;;;;;;;;;;17.34;76.32;100065.31;5014871;28;1901;-55
2022/10/14 12:06:11;;;;;;;;;;;;;;;17.37;76.03;100064.63;5014530;28;2793;-57
2022/10/14 12:08:44;;;;;;;;;;;;;;;17.39;76.37;100067.06;5014808;28;1155;-54
2022/10/14 12:11:15;;;;;;;;;;;;;;;17.40;76.30;100066.75;5014746;28;845;-55
2022/10/14 12:13:43;;;;;;;;;;;;;;;17.43;76.80;100070.00;5014563;28;897;-54
2022/10/14 12:16:12;;;;;;;;;;;;;;;17.45;76.60;100068.47;5018712;28;2132;-55
2022/10/14 12:18:37;;;;;;;;;;;;;;;17.46;77.11;100059.03;5025968;28;1981;-58
2022/10/14 12:21:26;;;;;;;;;;;;;;;17.47;75.69;100068.97;5033109;28;1894;-55
2022/10/14 12:23:57;;;;;;;;;;;;;;;17.47;75.84;100059.84;5034129;28;905;-55
2022/10/14 12:26:23;;;;;;;;;;;;;;;17.47;75.81;100060.66;5033862;28;900;-54
2022/10/14 12:28:48;;;;;;;;;;;;;;;17.47;75.94;100063.44;5033972;28;1418;-55
2022/10/14 12:31:40;;;;;;;;;;;;;;;17.46;76.72;100067.34;5028216;28;2342;-56
2022/10/14 12:34:14;;;;;;;;;;;;;;;17.45;76.24;100068.47;5018134;28;2202;-58
2022/10/14 12:36:40;;;;;;;;;;;;;;;17.45;77.17;100070.44;5032245;28;1674;-55
2022/10/14 12:39:17;;;;;;;;;;;;;;;17.43;77.32;100053.38;5033977;28;1303;-57
2022/10/14 12:41:48;;;;;;;;;;;;;;;17.44;77.19;100057.78;5032918;28;1965;-55
2022/10/14 12:44:17;;;;;;;;;;;;;;;17.42;77.33;100038.75;5033647;28;702;-57
2022/10/14 12:46:47;;;;;;;;;;;;;;;17.45;77.55;100031.69;5018278;28;2004;-56
2022/10/14 12:49:21;;;;;;;;;;;;;;;17.44;77.01;100022.59;5021687;28;1918;-55
2022/10/14 12:51:51;;;;;;;;;;;;;;;17.42;77.07;100033.22;5033371;28;1693;-55
2022/10/14 12:54:16;;;;;;;;;;;;;;;17.40;77.27;100036.31;5033704;28;809;-55
2022/10/14 12:56:51;;;;;;;;;;;;;;;17.40;76.29;100032.72;5033512;28;881;-58
2022/10/14 12:59:25;;;;;;;;;;;;;;;17.37;76.64;100028.66;5029673;28;1953;-55